• Join FlightAware (Why Join?)
  • Login
  • US Flag 
12:37AM EDT


 

Airport Tracker/Info


-or-


 

Live Flight TrackerFlight Track Log ✈ SWA542 ✈ 07-Sep-2013 ✈ KLAS - KSMF

Flight Track Log - Related Links

Times and Time Zones

All times are in EDT time to prevent confusion due to time zone crossing. See the SWA542 flight status page for this flight to view local times or setup timezone preferences in your user account.

Time Position Orientation Groundspeed Altitude Reporting Facility
EDT Latitude Longitude Course Direction KTS MPH feet Rate Location/Type
10:16PM 36.0747 -115.1819 260° West 189 217 3,600  Level Los Angeles Center
10:17PM 36.0644 -115.2544 260° West 229 264 5,200 1,740 Climbing Los Angeles Center
10:18PM 36.0089 -115.2833 203° Southwest 258 297 7,000 1,740 Climbing Los Angeles Center
10:18PM 35.9928 -115.2914 202° Southwest 276 318 7,000 180 Level Los Angeles Center
10:19PM 35.9536 -115.3192 210° Southwest 271 312 7,200 1,080 Climbing Los Angeles Center
10:20PM 35.8881 -115.4089 228° Southwest 286 329 9,000 1,800 Climbing Los Angeles Center
10:21PM 35.8886 -115.5111 270° West 294 338 11,000 960 Climbing Los Angeles Center
10:22PM 35.8911 -115.6347 271° West 353 406 11,000 900 Level Los Angeles Center
10:23PM 35.8928 -115.7617 271° West 369 425 12,900 2,460 Climbing Los Angeles Center
10:24PM 35.8953 -115.9025 271° West 383 441 16,100 2,820 Climbing Los Angeles Center
10:25PM 35.9408 -116.0217 295° West 401 461 18,700 3,060 Climbing Los Angeles Center
10:26PM 36.0231 -116.1161 317° Northwest 405 466 22,400 2,280 Climbing Los Angeles Center
10:27PM 36.1097 -116.2150 317° Northwest 412 474 23,400 1,260 Climbing Los Angeles Center
10:28PM 36.1939 -116.3117 317° Northwest 442 509 25,000 1,560 Climbing Los Angeles Center
10:29PM 36.2900 -116.4236 317° Northwest 467 537 26,700 1,920 Climbing Los Angeles Center
10:30PM 36.3881 -116.5364 317° Northwest 480 552 29,000 1,980 Climbing Los Angeles Center
10:31PM 36.4839 -116.6497 316° Northwest 478 550 30,800 1,920 Climbing Los Angeles Center
10:32PM 36.5953 -116.7714 319° Northwest 482 555 33,000 1,560 Climbing Los Angeles Center
10:33PM 36.7028 -116.8903 318° Northwest 477 549 34,000 480 Climbing Los Angeles Center
10:34PM 36.7956 -117.0103 314° West 481 554 34,000  Level Los Angeles Center
10:35PM 36.8803 -117.1231 313° West 482 555 34,000  Level Los Angeles Center
10:36PM 36.9728 -117.2422 314° West 478 550 34,000  Level Los Angeles Center
10:37PM 37.0650 -117.3636 314° West 479 551 34,000  Level Los Angeles Center
10:38PM 37.1744 -117.5075 314° West 474 545 34,000  Level Los Angeles Center
10:39PM 37.2100 -117.5575 312° West 474 545 34,000  Level Oakland Center
10:40PM 37.3011 -117.6761 314° West 471 542 34,000  Level Oakland Center
10:41PM 37.3919 -117.7983 313° West 473 544 34,000  Level Oakland Center
10:42PM 37.5011 -117.9422 314° West 474 545 34,000  Level Oakland Center
10:43PM 37.5922 -118.0639 313° West 475 547 34,000  Level Oakland Center
10:44PM 37.6831 -118.1883 313° West 479 551 34,000  Level Oakland Center
10:45PM 37.7753 -118.3117 313° West 480 552 34,000  Level Oakland Center
10:46PM 37.8683 -118.4353 314° West 482 555 34,000  Level Oakland Center
10:47PM 37.9594 -118.5594 313° West 480 552 34,000  Level Oakland Center
10:48PM 38.0497 -118.6836 313° West 479 551 34,000  Level Oakland Center
10:49PM 38.1233 -118.8211 304° West 476 548 34,000  Level Oakland Center
10:50PM 38.1786 -118.9603 297° West 475 547 34,000  Level Oakland Center
10:51PM 38.2397 -119.1058 298° West 468 539 34,000  Level Oakland Center
10:52PM 38.3006 -119.2558 297° West 474 545 34,000 -60 Level Oakland Center
10:53PM 38.3611 -119.4050 297° West 473 544 33,900 -600 Descending Oakland Center
10:54PM 38.4217 -119.5550 297° West 474 545 32,900 -960 Descending Oakland Center
10:55PM 38.4803 -119.7006 297° West 465 535 32,000 -1,020 Descending Oakland Center
10:56PM 38.5381 -119.8483 297° West 455 524 30,900 -1,680 Descending Oakland Center
10:57PM 38.5972 -119.9997 297° West 458 527 28,700 -2,520 Descending Oakland Center
10:58PM 38.6525 -120.1378 297° West 456 525 25,900 -3,120 Descending Oakland Center
10:59PM 38.7214 -120.3089 297° West 452 520 22,500 -3,000 Descending Oakland Center
11:00PM 38.7756 -120.4478 297° West 438 504 19,800 -2,700 Descending Oakland Center
11:01PM 38.8275 -120.5781 297° West 419 482 17,100 -3,060 Descending Oakland Center
11:02PM 38.8431 -120.7114 279° West 394 453 13,600 -3,180 Descending Oakland Center
11:03PM 38.8367 -120.8428 266° West 378 435 10,700 -2,040 Descending Oakland Center
11:04PM 38.8308 -120.9542 266° West 333 383 9,600 -1,560 Descending Oakland Center
11:05PM 38.8258 -121.0544 266° West 294 338 7,600 -1,320 Descending Oakland Center
11:06PM 38.8206 -121.1542 266° West 284 327 7,000 -840 Descending Oakland Center
11:07PM 38.8156 -121.2456 266° West 264 304 6,000 -1,080 Descending Oakland Center
11:08PM 38.8111 -121.3336 266° West 253 291 4,900 -1,200 Descending Oakland Center
11:09PM 38.8069 -121.4192 266° West 245 282 3,600 -1,020 Descending Oakland Center
11:10PM 38.8092 -121.4956 272° West 218 251 2,900 -900 Descending Oakland Center
11:11PM 38.8086 -121.5706 269° West 188 216 1,800 -840 Descending Oakland Center
11:12PM 38.7772 -121.6000 216° Southwest 163 188 1,300 -600 Descending Oakland Center
11:13PM 38.7392 -121.6006 181° South 147 169 600 -600 Descending Oakland Center
11:14PM 38.7058 -121.6014 181° South 142 163 200 -420 Descending Oakland Center
11:16PM 38.6954 -121.5908 218° Southwest  Level Estimated
11:23PM 38.6954 -121.5908 218° Southwest  Level Estimated